createdAt,value
2022-10-22T00:00:02.674Z,87.00
2022-10-22T00:01:02.552Z,87.00
2022-10-22T00:02:02.818Z,87.00
2022-10-22T00:03:03.409Z,87.00
2022-10-22T00:04:03.271Z,88.00
2022-10-22T00:05:03.315Z,88.00
2022-10-22T00:06:03.159Z,88.00
2022-10-22T00:07:02.967Z,88.00
2022-10-22T00:08:03.501Z,87.00
2022-10-22T00:09:03.042Z,88.00
2022-10-22T00:10:03.142Z,88.00
2022-10-22T00:11:03.534Z,89.00
2022-10-22T00:12:03.197Z,89.00
2022-10-22T00:13:03.654Z,89.00
2022-10-22T00:14:03.557Z,89.00
2022-10-22T00:15:03.494Z,90.00
2022-10-22T00:16:03.475Z,90.00
2022-10-22T00:17:04.238Z,91.00
2022-10-22T00:18:03.775Z,91.00
2022-10-22T00:19:03.411Z,90.00
2022-10-22T00:20:03.511Z,90.00
2022-10-22T00:21:03.503Z,90.00
2022-10-22T00:22:03.321Z,90.00
2022-10-22T00:23:03.327Z,90.00
2022-10-22T00:24:03.747Z,90.00
2022-10-22T00:25:03.861Z,90.00
2022-10-22T00:26:03.582Z,90.00
2022-10-22T00:27:03.483Z,89.00
2022-10-22T00:28:03.313Z,89.00
2022-10-22T00:29:03.574Z,89.00
2022-10-22T00:30:03.464Z,89.00
2022-10-22T00:31:03.837Z,90.00
2022-10-22T00:32:02.826Z,90.00
2022-10-22T00:33:02.868Z,90.00
2022-10-22T00:34:03.027Z,90.00
2022-10-22T00:35:02.624Z,91.00
2022-10-22T00:36:02.690Z,91.00
2022-10-22T00:37:03.479Z,91.00
2022-10-22T00:38:03.579Z,91.00
2022-10-22T00:39:03.446Z,92.00
2022-10-22T00:40:03.591Z,94.00
2022-10-22T00:41:03.642Z,94.00
2022-10-22T00:42:03.601Z,96.00
2022-10-22T00:43:03.599Z,96.00
2022-10-22T00:44:03.787Z,97.00
2022-10-22T00:45:03.689Z,97.00
2022-10-22T00:46:03.897Z,97.00
2022-10-22T00:47:03.020Z,98.00
2022-10-22T00:48:02.878Z,98.00
2022-10-22T00:49:03.515Z,98.00
2022-10-22T00:51:03.496Z,97.00
2022-10-22T00:52:02.955Z,97.00
2022-10-22T00:53:03.337Z,97.00
2022-10-22T00:54:03.165Z,96.00
2022-10-22T00:55:02.992Z,96.00
2022-10-22T00:56:03.312Z,96.00
2022-10-22T00:57:03.487Z,95.00
2022-10-22T00:58:03.399Z,94.00
2022-10-22T00:59:03.539Z,93.00
2022-10-22T01:00:03.012Z,92.00
2022-10-22T01:01:03.642Z,92.00
2022-10-22T01:02:02.377Z,92.00
2022-10-22T01:03:02.686Z,92.00
2022-10-22T01:04:02.705Z,91.00
2022-10-22T01:05:02.565Z,91.00
2022-10-22T01:06:02.265Z,91.00
2022-10-22T01:07:02.842Z,90.00
2022-10-22T01:08:03.260Z,90.00
2022-10-22T01:09:02.695Z,90.00
2022-10-22T01:10:02.725Z,90.00
2022-10-22T01:11:02.590Z,90.00
2022-10-22T01:12:02.168Z,89.00
2022-10-22T01:13:02.122Z,89.00
2022-10-22T01:14:02.028Z,89.00
2022-10-22T01:15:02.222Z,89.00
2022-10-22T01:16:02.073Z,89.00
2022-10-22T01:17:02.849Z,89.00
2022-10-22T01:18:02.534Z,89.00
2022-10-22T01:19:02.352Z,89.00
2022-10-22T01:20:02.892Z,89.00
2022-10-22T01:21:02.689Z,89.00
2022-10-22T01:22:01.959Z,89.00
2022-10-22T01:23:02.533Z,89.00
2022-10-22T01:24:02.327Z,89.00
2022-10-22T01:25:02.258Z,89.00
2022-10-22T01:26:02.108Z,89.00
2022-10-22T01:27:02.871Z,89.00
2022-10-22T01:28:02.770Z,89.00
2022-10-22T01:29:02.322Z,89.00
2022-10-22T01:30:02.682Z,89.00
2022-10-22T01:31:02.554Z,89.00
2022-10-22T01:32:03.083Z,89.00
2022-10-22T01:33:02.826Z,89.00
2022-10-22T01:34:03.383Z,89.00
2022-10-22T01:35:02.874Z,89.00
2022-10-22T01:36:02.711Z,89.00
2022-10-22T01:37:03.172Z,89.00
2022-10-22T01:38:03.017Z,89.00
2022-10-22T01:39:03.481Z,89.00
2022-10-22T01:40:02.871Z,90.00
2022-10-22T01:41:02.846Z,90.00
2022-10-22T01:42:01.926Z,90.00
2022-10-22T01:43:02.550Z,90.00
2022-10-22T01:44:02.421Z,89.00
2022-10-22T01:45:01.903Z,89.00
2022-10-22T01:46:02.374Z,89.00
2022-10-22T01:47:02.800Z,88.00
2022-10-22T01:48:02.796Z,88.00
2022-10-22T01:49:03.034Z,88.00
2022-10-22T01:50:02.884Z,88.00
2022-10-22T01:51:02.570Z,89.00
2022-10-22T01:52:02.713Z,89.00
2022-10-22T01:53:02.219Z,89.00
2022-10-22T01:54:02.722Z,88.00
2022-10-22T01:55:02.284Z,88.00
2022-10-22T01:56:02.173Z,89.00
2022-10-22T01:57:02.676Z,89.00
2022-10-22T01:58:02.668Z,90.00
2022-10-22T01:59:02.536Z,90.00
2022-10-22T02:00:02.631Z,89.00
2022-10-22T02:01:02.570Z,89.00
2022-10-22T02:02:03.200Z,90.00
2022-10-22T02:03:02.947Z,90.00
2022-10-22T02:04:02.892Z,90.00
2022-10-22T02:05:02.747Z,90.00
2022-10-22T02:06:03.265Z,90.00
2022-10-22T02:07:03.833Z,90.00
2022-10-22T02:08:03.309Z,90.00
2022-10-22T02:09:03.554Z,90.00
2022-10-22T02:10:03.566Z,90.00
2022-10-22T02:11:03.305Z,89.00
2022-10-22T02:12:03.070Z,90.00
2022-10-22T02:13:02.573Z,90.00
2022-10-22T02:14:02.667Z,90.00
2022-10-22T02:15:02.548Z,90.00
2022-10-22T02:16:02.456Z,90.00
2022-10-22T02:17:03.051Z,90.00
2022-10-22T02:18:02.643Z,90.00
2022-10-22T02:19:03.034Z,90.00
2022-10-22T02:20:03.033Z,90.00
2022-10-22T02:21:03.090Z,90.00
2022-10-22T02:22:03.471Z,91.00
2022-10-22T02:23:03.394Z,91.00
2022-10-22T02:24:03.246Z,91.00
2022-10-22T02:25:03.528Z,91.00
2022-10-22T02:26:03.120Z,91.00
2022-10-22T02:27:03.481Z,91.00
2022-10-22T02:28:03.243Z,91.00
2022-10-22T02:29:03.171Z,91.00
2022-10-22T02:30:03.834Z,91.00
2022-10-22T02:31:03.779Z,91.00
2022-10-22T02:32:03.120Z,91.00
2022-10-22T02:33:02.679Z,91.00
2022-10-22T02:34:03.067Z,91.00
2022-10-22T02:35:02.553Z,91.00
2022-10-22T02:36:03.116Z,90.00
2022-10-22T02:37:03.465Z,90.00
2022-10-22T02:38:03.482Z,90.00
2022-10-22T02:39:03.142Z,90.00
2022-10-22T02:40:03.036Z,89.00
2022-10-22T02:41:03.018Z,89.00
2022-10-22T02:42:03.745Z,89.00
2022-10-22T02:43:03.716Z,89.00
2022-10-22T02:44:03.186Z,89.00
2022-10-22T02:45:03.683Z,89.00
2022-10-22T02:46:03.332Z,89.00
2022-10-22T02:47:03.954Z,89.00
2022-10-22T02:48:03.583Z,89.00
2022-10-22T02:49:03.447Z,89.00
2022-10-22T02:50:05.470Z,89.00
2022-10-22T02:51:03.867Z,89.00
2022-10-22T02:52:03.135Z,89.00
2022-10-22T02:53:03.039Z,88.00
2022-10-22T02:54:02.953Z,88.00
2022-10-22T02:55:02.918Z,89.00
2022-10-22T02:56:02.876Z,89.00
2022-10-22T02:57:03.397Z,89.00
2022-10-22T02:58:02.770Z,89.00
2022-10-22T02:59:02.774Z,89.00
2022-10-22T03:00:02.793Z,89.00
2022-10-22T03:01:02.876Z,89.00
2022-10-22T03:02:02.226Z,89.00
2022-10-22T03:03:02.070Z,89.00
2022-10-22T03:04:02.183Z,89.00
2022-10-22T03:05:02.141Z,89.00
2022-10-22T03:06:02.042Z,89.00
2022-10-22T03:07:02.425Z,90.00
2022-10-22T03:08:01.922Z,90.00
2022-10-22T03:09:02.337Z,90.00
2022-10-22T03:10:02.299Z,90.00
2022-10-22T03:11:02.248Z,90.00
2022-10-22T03:12:02.366Z,89.00
2022-10-22T03:13:02.248Z,88.00
2022-10-22T03:14:02.715Z,88.00
2022-10-22T03:15:02.283Z,88.00
2022-10-22T03:16:02.091Z,88.00
2022-10-22T03:17:02.108Z,88.00
2022-10-22T03:18:01.976Z,88.00
2022-10-22T03:19:01.808Z,87.00
2022-10-22T03:20:01.646Z,88.00
2022-10-22T03:21:02.167Z,88.00
2022-10-22T03:22:02.406Z,87.00
2022-10-22T03:23:02.233Z,87.00
2022-10-22T03:24:02.523Z,87.00
2022-10-22T03:25:02.267Z,87.00
2022-10-22T03:26:02.078Z,86.00
2022-10-22T03:27:02.733Z,86.00
2022-10-22T03:28:03.106Z,86.00
2022-10-22T03:29:02.902Z,86.00
2022-10-22T03:30:03.148Z,86.00
2022-10-22T03:31:02.894Z,86.00
2022-10-22T03:32:02.159Z,86.00
2022-10-22T03:33:02.072Z,86.00
2022-10-22T03:34:01.895Z,86.00
2022-10-22T03:35:02.305Z,86.00
2022-10-22T03:36:01.902Z,86.00
2022-10-22T03:37:02.438Z,87.00
2022-10-22T03:38:02.420Z,87.00
2022-10-22T03:39:02.366Z,87.00
2022-10-22T03:40:02.336Z,87.00
2022-10-22T03:41:02.288Z,88.00
2022-10-22T03:42:02.043Z,88.00
2022-10-22T03:43:01.922Z,88.00
2022-10-22T03:44:01.802Z,88.00
2022-10-22T03:45:01.911Z,88.00
2022-10-22T03:46:01.722Z,88.00
2022-10-22T03:47:02.866Z,89.00
2022-10-22T03:48:01.960Z,88.00
2022-10-22T03:49:02.316Z,88.00
2022-10-22T03:50:02.021Z,88.00
2022-10-22T03:51:01.940Z,89.00
2022-10-22T03:52:02.635Z,88.00
2022-10-22T03:53:02.501Z,88.00
2022-10-22T03:54:02.361Z,89.00
2022-10-22T03:55:02.484Z,89.00
2022-10-22T03:56:02.350Z,89.00
2022-10-22T03:57:03.000Z,89.00
2022-10-22T03:58:02.600Z,88.00
2022-10-22T03:59:02.472Z,88.00
2022-10-22T04:00:03.124Z,87.00
2022-10-22T04:01:02.906Z,87.00
2022-10-22T04:02:02.779Z,87.00
2022-10-22T04:03:03.066Z,87.00
2022-10-22T04:04:02.891Z,87.00
2022-10-22T04:05:03.250Z,87.00
2022-10-22T04:06:02.954Z,87.00
2022-10-22T04:07:02.899Z,87.00
2022-10-22T04:08:03.024Z,87.00
2022-10-22T04:09:03.568Z,87.00
2022-10-22T04:10:03.009Z,87.00
2022-10-22T04:11:03.024Z,87.00
2022-10-22T04:12:03.127Z,87.00
2022-10-22T04:13:03.312Z,87.00
2022-10-22T04:14:03.323Z,87.00
2022-10-22T04:15:02.688Z,87.00
2022-10-22T04:16:03.275Z,87.00
2022-10-22T04:17:02.244Z,87.00
2022-10-22T04:18:02.080Z,87.00
2022-10-22T04:19:01.942Z,86.00
2022-10-22T04:20:02.436Z,86.00
2022-10-22T04:21:02.235Z,86.00
2022-10-22T04:22:02.030Z,86.00
2022-10-22T04:23:01.960Z,86.00
2022-10-22T04:24:02.481Z,85.00
2022-10-22T04:25:02.064Z,86.00
2022-10-22T04:26:02.252Z,86.00
2022-10-22T04:27:02.711Z,85.00
2022-10-22T04:28:02.567Z,85.00
2022-10-22T04:29:03.043Z,85.00
2022-10-22T04:30:02.986Z,86.00
2022-10-22T04:31:02.836Z,85.00
2022-10-22T04:32:02.696Z,85.00
2022-10-22T04:33:02.613Z,84.00
2022-10-22T04:34:02.653Z,84.00
2022-10-22T04:35:02.747Z,85.00
2022-10-22T04:36:02.586Z,85.00
2022-10-22T04:37:02.636Z,84.00
2022-10-22T04:38:02.370Z,84.00
2022-10-22T04:39:02.816Z,84.00
2022-10-22T04:40:02.296Z,84.00
2022-10-22T04:41:02.921Z,84.00
2022-10-22T04:42:02.134Z,84.00
2022-10-22T04:43:01.995Z,84.00
2022-10-22T04:44:01.954Z,84.00
2022-10-22T04:45:02.403Z,84.00
2022-10-22T04:46:02.364Z,83.00
2022-10-22T04:47:02.730Z,84.00
2022-10-22T04:48:02.600Z,84.00
2022-10-22T04:49:02.502Z,84.00
2022-10-22T04:50:02.657Z,85.00
2022-10-22T04:51:02.387Z,85.00
2022-10-22T04:52:02.699Z,86.00
2022-10-22T04:53:02.387Z,86.00
2022-10-22T04:54:02.406Z,86.00
2022-10-22T04:55:03.035Z,86.00
2022-10-22T04:56:02.546Z,87.00
2022-10-22T04:57:02.562Z,87.00
2022-10-22T04:58:02.410Z,87.00
2022-10-22T04:59:02.250Z,87.00
2022-10-22T05:00:02.714Z,86.00
2022-10-22T05:01:02.547Z,86.00
2022-10-22T05:02:03.097Z,86.00
2022-10-22T05:03:02.689Z,87.00
2022-10-22T05:04:03.268Z,87.00
2022-10-22T05:05:03.468Z,86.00
2022-10-22T05:06:03.193Z,86.00
2022-10-22T05:07:02.357Z,86.00
2022-10-22T05:08:02.287Z,86.00
2022-10-22T05:09:02.274Z,86.00
2022-10-22T05:10:02.983Z,86.00
2022-10-22T05:11:02.595Z,86.00
2022-10-22T05:12:02.750Z,86.00
2022-10-22T05:13:03.135Z,86.00
2022-10-22T05:14:03.299Z,86.00
2022-10-22T05:15:02.878Z,85.00
2022-10-22T05:16:02.958Z,85.00
2022-10-22T05:17:02.483Z,85.00
2022-10-22T05:18:01.999Z,85.00
2022-10-22T05:19:02.498Z,85.00
2022-10-22T05:20:02.346Z,85.00
2022-10-22T05:21:02.599Z,84.00
2022-10-22T05:22:02.643Z,84.00
2022-10-22T05:23:02.127Z,84.00
2022-10-22T05:24:02.241Z,84.00
2022-10-22T05:25:02.121Z,84.00
2022-10-22T05:26:02.667Z,84.00
2022-10-22T05:27:02.962Z,84.00
2022-10-22T05:28:02.413Z,86.00
2022-10-22T05:29:02.799Z,86.00
2022-10-22T05:30:02.922Z,86.00
2022-10-22T05:31:03.052Z,86.00
2022-10-22T05:32:03.348Z,86.00
2022-10-22T05:33:02.808Z,86.00
2022-10-22T05:34:03.293Z,85.00
2022-10-22T05:35:03.467Z,86.00
2022-10-22T05:36:03.193Z,86.00
2022-10-22T05:37:02.836Z,86.00
2022-10-22T05:38:02.532Z,85.00
2022-10-22T05:39:02.337Z,85.00
2022-10-22T05:40:18.909Z,85.00
2022-10-22T05:41:02.331Z,85.00
2022-10-22T05:42:02.922Z,85.00
2022-10-22T05:43:02.500Z,85.00
2022-10-22T05:44:02.485Z,86.00
2022-10-22T05:45:02.793Z,86.00
2022-10-22T05:46:02.602Z,88.00
2022-10-22T05:47:03.085Z,89.00
2022-10-22T05:48:02.807Z,89.00
2022-10-22T05:49:02.829Z,89.00
2022-10-22T05:50:02.857Z,90.00
2022-10-22T05:51:02.858Z,90.00
2022-10-22T05:52:02.177Z,90.00
2022-10-22T05:53:02.829Z,89.00
2022-10-22T05:54:02.575Z,88.00
2022-10-22T05:55:02.658Z,88.00
2022-10-22T05:56:02.282Z,88.00
2022-10-22T05:57:02.673Z,87.00
2022-10-22T05:58:02.801Z,88.00
2022-10-22T06:00:02.767Z,88.00
2022-10-22T06:01:03.074Z,87.00
2022-10-22T06:02:02.051Z,86.00
2022-10-22T06:03:02.508Z,85.00
2022-10-22T06:04:02.450Z,85.00
2022-10-22T06:05:02.369Z,84.00
2022-10-22T06:06:02.697Z,84.00
2022-10-22T06:07:02.410Z,85.00
2022-10-22T06:08:02.373Z,85.00
2022-10-22T06:09:03.029Z,85.00
2022-10-22T06:10:02.922Z,85.00
2022-10-22T06:11:02.619Z,85.00
2022-10-22T06:12:02.582Z,85.00
2022-10-22T06:13:02.628Z,84.00
2022-10-22T06:14:02.981Z,84.00
2022-10-22T06:15:02.954Z,84.00
2022-10-22T06:16:02.926Z,84.00
2022-10-22T06:17:02.257Z,84.00
2022-10-22T06:18:02.038Z,84.00
2022-10-22T06:19:02.050Z,84.00
2022-10-22T06:20:01.962Z,83.00
2022-10-22T06:21:01.985Z,83.00
2022-10-22T06:22:02.591Z,83.00
2022-10-22T06:23:03.024Z,83.00
2022-10-22T06:24:02.993Z,83.00
2022-10-22T06:25:02.998Z,83.00
2022-10-22T06:26:02.736Z,83.00
2022-10-22T06:27:02.283Z,83.00
2022-10-22T06:28:02.733Z,83.00
2022-10-22T06:29:02.437Z,83.00
2022-10-22T06:30:02.729Z,83.00
2022-10-22T06:31:02.390Z,83.00
2022-10-22T06:32:02.761Z,83.00
2022-10-22T06:33:02.624Z,82.00
2022-10-22T06:34:02.735Z,83.00
2022-10-22T06:35:02.963Z,82.00
2022-10-22T06:36:06.679Z,83.00
2022-10-22T06:37:02.497Z,83.00
2022-10-22T06:38:02.728Z,83.00
2022-10-22T06:39:02.722Z,84.00
2022-10-22T06:40:02.691Z,84.00
2022-10-22T06:41:02.729Z,84.00
2022-10-22T06:42:02.805Z,84.00
2022-10-22T06:43:02.695Z,84.00
2022-10-22T06:44:02.996Z,84.00
2022-10-22T06:46:02.897Z,85.00
2022-10-22T06:47:02.925Z,85.00
2022-10-22T06:48:03.459Z,84.00
2022-10-22T06:49:02.679Z,86.00
2022-10-22T06:50:03.363Z,86.00
2022-10-22T06:51:03.093Z,85.00
2022-10-22T06:52:03.038Z,85.00
2022-10-22T06:53:03.024Z,86.00
2022-10-22T06:54:03.016Z,86.00
2022-10-22T06:55:03.086Z,88.00
2022-10-22T06:56:03.421Z,89.00
2022-10-22T06:57:02.256Z,89.00
2022-10-22T06:58:02.050Z,89.00
2022-10-22T06:59:02.062Z,89.00
2022-10-22T07:00:02.067Z,90.00
2022-10-22T07:01:02.196Z,90.00
2022-10-22T07:02:02.575Z,90.00
2022-10-22T07:03:02.599Z,91.00
2022-10-22T07:04:02.679Z,91.00
2022-10-22T07:05:02.509Z,91.00
2022-10-22T07:06:02.615Z,91.00
2022-10-22T07:07:02.686Z,91.00
2022-10-22T07:08:03.012Z,90.00
2022-10-22T07:09:02.957Z,90.00
2022-10-22T07:10:02.713Z,89.00
2022-10-22T07:11:02.694Z,89.00
2022-10-22T07:12:02.673Z,90.00
2022-10-22T07:13:02.490Z,90.00
2022-10-22T07:14:02.416Z,92.00
2022-10-22T07:15:02.425Z,93.00
2022-10-22T07:16:02.466Z,92.00
2022-10-22T07:17:02.173Z,92.00
2022-10-22T07:18:02.165Z,91.00
2022-10-22T07:19:02.231Z,92.00
2022-10-22T07:20:02.221Z,92.00
2022-10-22T07:21:02.142Z,92.00
2022-10-22T07:22:02.845Z,91.00
2022-10-22T07:23:02.762Z,91.00
2022-10-22T07:24:02.595Z,92.00
2022-10-22T07:25:06.534Z,92.00
2022-10-22T07:26:02.818Z,93.00
2022-10-22T07:27:03.300Z,93.00
2022-10-22T07:28:02.873Z,92.00
2022-10-22T07:29:02.761Z,91.00
2022-10-22T07:30:02.965Z,91.00
2022-10-22T07:31:03.092Z,92.00
2022-10-22T07:32:02.502Z,92.00
2022-10-22T07:33:02.580Z,92.00
2022-10-22T07:34:02.373Z,92.00
2022-10-22T07:35:02.759Z,91.00
2022-10-22T07:36:02.543Z,91.00
2022-10-22T07:37:02.647Z,91.00
2022-10-22T07:38:02.243Z,91.00
2022-10-22T07:39:02.360Z,90.00
2022-10-22T07:40:03.873Z,91.00
2022-10-22T07:41:02.633Z,91.00
2022-10-22T07:42:02.809Z,91.00
2022-10-22T07:43:02.731Z,91.00
2022-10-22T07:44:02.929Z,90.00
2022-10-22T07:45:02.776Z,91.00
2022-10-22T07:46:02.845Z,91.00
2022-10-22T07:47:03.013Z,91.00
2022-10-22T07:48:02.770Z,91.00
2022-10-22T07:49:03.115Z,91.00
2022-10-22T07:50:02.723Z,91.00
2022-10-22T07:51:02.809Z,92.00
2022-10-22T07:52:02.988Z,92.00
2022-10-22T07:53:02.987Z,92.00
2022-10-22T07:54:03.082Z,92.00
2022-10-22T07:55:03.419Z,92.00
2022-10-22T07:56:02.804Z,92.00
2022-10-22T07:57:02.420Z,92.00
2022-10-22T07:58:02.114Z,92.00
2022-10-22T08:00:02.169Z,92.00
2022-10-22T08:01:02.332Z,92.00
2022-10-22T08:02:03.149Z,92.00
2022-10-22T08:03:03.146Z,92.00
2022-10-22T08:04:02.675Z,92.00
2022-10-22T08:05:02.796Z,92.00
2022-10-22T08:06:03.082Z,92.00
2022-10-22T08:07:03.217Z,92.00
2022-10-22T08:08:03.163Z,92.00
2022-10-22T08:09:03.159Z,92.00
2022-10-22T08:10:03.324Z,94.00
2022-10-22T08:11:03.295Z,95.00
2022-10-22T08:12:02.296Z,94.00
2022-10-22T08:13:02.456Z,94.00
2022-10-22T08:14:02.310Z,94.00
2022-10-22T08:15:02.607Z,94.00
2022-10-22T08:16:02.767Z,94.00
2022-10-22T08:17:02.645Z,94.00
2022-10-22T08:18:02.746Z,94.00
2022-10-22T08:19:03.169Z,94.00
2022-10-22T08:20:02.888Z,93.00
2022-10-22T08:21:02.935Z,93.00
2022-10-22T08:22:02.723Z,93.00
2022-10-22T08:23:02.515Z,93.00
2022-10-22T08:24:02.596Z,93.00
2022-10-22T08:25:02.684Z,93.00
2022-10-22T08:26:02.765Z,93.00
2022-10-22T08:27:03.158Z,93.00
2022-10-22T08:28:02.529Z,92.00
2022-10-22T08:29:02.724Z,92.00
2022-10-22T08:30:02.559Z,93.00
2022-10-22T08:31:02.650Z,94.00
2022-10-22T08:32:03.397Z,93.00
2022-10-22T08:33:02.907Z,93.00
2022-10-22T08:34:03.099Z,93.00
2022-10-22T08:35:03.151Z,93.00
2022-10-22T08:36:03.395Z,93.00
2022-10-22T08:37:02.881Z,92.00
2022-10-22T08:38:02.646Z,90.00
2022-10-22T08:39:02.865Z,91.00
2022-10-22T08:40:02.793Z,91.00
2022-10-22T08:41:02.297Z,91.00
2022-10-22T08:42:02.829Z,91.00
2022-10-22T08:43:02.930Z,91.00
2022-10-22T08:44:03.172Z,90.00
2022-10-22T08:45:02.871Z,89.00
2022-10-22T08:46:03.088Z,88.00
2022-10-22T08:47:02.076Z,88.00
2022-10-22T08:48:02.210Z,88.00
2022-10-22T08:49:02.276Z,87.00
2022-10-22T08:50:02.471Z,87.00
2022-10-22T08:51:02.728Z,85.00
2022-10-22T08:52:03.128Z,84.00
2022-10-22T08:53:02.534Z,84.00
2022-10-22T08:54:02.875Z,84.00
2022-10-22T08:55:02.630Z,84.00
2022-10-22T08:56:02.798Z,84.00
2022-10-22T08:57:02.841Z,85.00
2022-10-22T08:58:03.374Z,85.00
2022-10-22T08:59:02.806Z,84.00
2022-10-22T09:00:03.071Z,83.00
2022-10-22T09:01:02.824Z,84.00
2022-10-22T09:02:02.511Z,85.00
2022-10-22T09:03:02.266Z,85.00
2022-10-22T09:04:02.679Z,84.00
2022-10-22T09:05:02.676Z,84.00
2022-10-22T09:06:02.665Z,84.00
2022-10-22T09:07:02.677Z,83.00
2022-10-22T09:08:03.183Z,82.00
2022-10-22T09:09:03.134Z,80.00
2022-10-22T09:10:02.916Z,80.00
2022-10-22T09:11:03.138Z,80.00
2022-10-22T09:12:02.927Z,80.00
2022-10-22T09:13:03.266Z,80.00
2022-10-22T09:14:03.590Z,79.00
2022-10-22T09:15:03.493Z,79.00
2022-10-22T09:16:03.088Z,80.00
2022-10-22T09:17:03.038Z,79.00
2022-10-22T09:18:03.459Z,79.00
2022-10-22T09:19:03.296Z,79.00
2022-10-22T09:20:03.181Z,79.00
2022-10-22T09:21:03.141Z,79.00
2022-10-22T09:22:02.683Z,78.00
2022-10-22T09:23:03.181Z,78.00
2022-10-22T09:24:02.891Z,78.00
2022-10-22T09:25:02.977Z,78.00
2022-10-22T09:26:03.001Z,78.00
2022-10-22T09:27:03.310Z,78.00
2022-10-22T09:28:03.352Z,79.00
2022-10-22T09:29:03.094Z,79.00
2022-10-22T09:30:03.127Z,79.00
2022-10-22T09:31:03.697Z,77.00
2022-10-22T09:32:02.273Z,77.00
2022-10-22T09:33:02.325Z,77.00
2022-10-22T09:34:02.391Z,76.00
2022-10-22T09:35:02.426Z,76.00
2022-10-22T09:36:02.538Z,77.00
2022-10-22T09:37:02.508Z,77.00
2022-10-22T09:38:02.585Z,77.00
2022-10-22T09:39:02.598Z,77.00
2022-10-22T09:40:02.602Z,76.00
2022-10-22T09:41:02.312Z,76.00
2022-10-22T09:42:02.978Z,76.00
2022-10-22T09:43:02.918Z,76.00
2022-10-22T09:44:03.114Z,77.00
2022-10-22T09:45:03.069Z,76.00
2022-10-22T09:46:03.143Z,76.00
2022-10-22T09:47:02.642Z,76.00
2022-10-22T09:48:02.855Z,76.00
2022-10-22T09:49:02.655Z,76.00
2022-10-22T09:50:02.645Z,77.00
2022-10-22T09:51:02.653Z,77.00
2022-10-22T09:52:02.747Z,77.00
2022-10-22T09:53:03.194Z,77.00
2022-10-22T09:54:02.628Z,77.00
2022-10-22T09:55:02.699Z,77.00
2022-10-22T09:56:02.977Z,77.00
2022-10-22T09:57:02.931Z,77.00
2022-10-22T09:58:03.361Z,77.00
2022-10-22T09:59:02.789Z,76.00
2022-10-22T10:00:03.404Z,76.00
2022-10-22T10:01:03.545Z,75.00
2022-10-22T10:02:13.705Z,76.00
2022-10-22T10:03:03.357Z,75.00
2022-10-22T10:04:06.956Z,75.00
2022-10-22T10:05:03.126Z,75.00
2022-10-22T10:06:05.927Z,75.00
2022-10-22T10:07:02.799Z,75.00
2022-10-22T10:08:02.606Z,75.00
2022-10-22T10:09:02.505Z,76.00
2022-10-22T10:10:02.282Z,75.00
2022-10-22T10:11:02.849Z,75.00
2022-10-22T10:12:02.818Z,75.00
2022-10-22T10:13:03.217Z,75.00
2022-10-22T10:14:02.995Z,75.00
2022-10-22T10:15:02.948Z,74.00
2022-10-22T10:16:03.331Z,75.00
2022-10-22T10:17:02.909Z,75.00
2022-10-22T10:18:03.038Z,75.00
2022-10-22T10:19:03.345Z,75.00
2022-10-22T10:20:04.232Z,75.00
2022-10-22T10:21:03.432Z,75.00
2022-10-22T10:22:03.090Z,76.00
2022-10-22T10:23:03.496Z,76.00
2022-10-22T10:24:03.525Z,76.00
2022-10-22T10:25:03.081Z,74.00
2022-10-22T10:26:03.765Z,74.00
2022-10-22T10:27:03.102Z,73.00
2022-10-22T10:28:03.048Z,74.00
2022-10-22T10:29:03.151Z,73.00
2022-10-22T10:30:02.893Z,72.00
2022-10-22T10:31:03.005Z,73.00
2022-10-22T10:32:03.090Z,74.00
2022-10-22T10:33:02.980Z,73.00
2022-10-22T10:34:02.999Z,73.00
2022-10-22T10:35:03.058Z,73.00
2022-10-22T10:36:02.805Z,72.00
2022-10-22T10:37:02.760Z,72.00
2022-10-22T10:38:02.862Z,72.00
2022-10-22T10:39:02.951Z,73.00
2022-10-22T10:40:03.024Z,73.00
2022-10-22T10:41:02.733Z,74.00
2022-10-22T10:42:03.455Z,74.00
2022-10-22T10:43:03.473Z,73.00
2022-10-22T10:44:03.498Z,73.00
2022-10-22T10:45:03.624Z,73.00
2022-10-22T10:46:03.625Z,72.00
2022-10-22T10:47:02.764Z,73.00
2022-10-22T10:48:02.863Z,72.00
2022-10-22T10:49:02.979Z,72.00
2022-10-22T10:50:02.765Z,72.00
2022-10-22T10:51:02.845Z,73.00
2022-10-22T10:52:03.626Z,73.00
2022-10-22T10:53:03.502Z,73.00
2022-10-22T10:54:03.609Z,72.00
2022-10-22T10:55:03.310Z,71.00
2022-10-22T10:56:03.783Z,72.00
2022-10-22T10:57:03.586Z,72.00
2022-10-22T10:58:03.476Z,72.00
2022-10-22T10:59:03.602Z,73.00
2022-10-22T11:00:03.533Z,73.00
2022-10-22T11:01:03.614Z,74.00
2022-10-22T11:02:02.929Z,73.00
2022-10-22T11:03:02.972Z,73.00
2022-10-22T11:04:03.097Z,73.00
2022-10-22T11:05:02.636Z,73.00
2022-10-22T11:06:02.933Z,72.00
2022-10-22T11:07:10.942Z,72.00
2022-10-22T11:08:02.849Z,72.00
2022-10-22T11:09:03.053Z,71.00
2022-10-22T11:10:03.092Z,70.00
2022-10-22T11:11:03.050Z,70.00
2022-10-22T11:12:03.571Z,70.00
2022-10-22T11:13:03.135Z,70.00
2022-10-22T11:14:03.542Z,69.00
2022-10-22T11:15:03.504Z,71.00
2022-10-22T11:16:03.518Z,71.00
2022-10-22T11:17:03.678Z,71.00
2022-10-22T11:18:03.553Z,70.00
2022-10-22T11:19:03.874Z,70.00
2022-10-22T11:20:03.761Z,70.00
2022-10-22T11:21:03.865Z,70.00
2022-10-22T11:22:03.394Z,69.00
2022-10-22T11:23:19.325Z,70.00
2022-10-22T11:24:03.028Z,70.00
2022-10-22T11:25:03.277Z,70.00
2022-10-22T11:26:03.377Z,70.00
2022-10-22T11:27:02.946Z,70.00
2022-10-22T11:28:09.100Z,70.00
2022-10-22T11:29:03.331Z,69.00
2022-10-22T11:30:03.273Z,70.00
2022-10-22T11:31:03.119Z,69.00
2022-10-22T11:32:03.847Z,68.00
2022-10-22T11:33:03.946Z,69.00
2022-10-22T11:34:09.775Z,70.00
2022-10-22T11:35:03.886Z,70.00
2022-10-22T11:36:03.838Z,70.00
2022-10-22T11:37:03.905Z,70.00
2022-10-22T11:38:03.975Z,71.00
2022-10-22T11:39:03.765Z,71.00
2022-10-22T11:40:03.787Z,71.00
2022-10-22T11:41:03.714Z,71.00
2022-10-22T11:42:03.418Z,71.00
2022-10-22T11:43:03.403Z,71.00
2022-10-22T11:44:03.058Z,71.00
2022-10-22T11:45:03.055Z,71.00
2022-10-22T11:46:03.127Z,70.00
2022-10-22T11:47:03.654Z,69.00
2022-10-22T11:48:03.415Z,67.00
2022-10-22T11:49:03.304Z,67.00
2022-10-22T11:50:03.470Z,68.00
2022-10-22T11:51:03.365Z,69.00
2022-10-22T11:52:05.020Z,69.00
2022-10-22T11:53:03.055Z,69.00
2022-10-22T11:54:02.913Z,69.00
2022-10-22T11:55:02.953Z,68.00
2022-10-22T11:56:03.052Z,68.00
2022-10-22T11:57:03.806Z,68.00
2022-10-22T11:58:03.526Z,68.00
2022-10-22T11:59:03.787Z,69.00
2022-10-22T12:00:03.521Z,70.00
2022-10-22T12:01:03.646Z,70.00
2022-10-22T12:02:02.452Z,69.00
2022-10-22T12:03:02.533Z,68.00
2022-10-22T12:04:02.702Z,68.00
2022-10-22T12:05:02.928Z,67.00
2022-10-22T12:06:03.014Z,68.00
2022-10-22T12:07:03.109Z,65.00
2022-10-22T12:08:03.799Z,66.00
2022-10-22T12:09:03.440Z,66.00
2022-10-22T12:10:03.492Z,66.00
2022-10-22T12:11:03.494Z,65.00
2022-10-22T12:12:03.390Z,65.00
2022-10-22T12:13:02.435Z,67.00
2022-10-22T12:14:02.707Z,67.00
2022-10-22T12:15:02.565Z,67.00
2022-10-22T12:16:02.639Z,66.00
2022-10-22T12:17:02.644Z,66.00
2022-10-22T12:18:03.211Z,64.00
2022-10-22T12:19:03.113Z,65.00
2022-10-22T12:20:03.296Z,65.00
2022-10-22T12:21:03.108Z,64.00
2022-10-22T12:22:02.991Z,65.00
2022-10-22T12:23:03.160Z,64.00
2022-10-22T12:24:03.740Z,65.00
2022-10-22T12:25:03.784Z,64.00
2022-10-22T12:26:03.355Z,64.00
2022-10-22T12:27:03.256Z,65.00
2022-10-22T12:28:02.469Z,65.00
2022-10-22T12:29:03.094Z,65.00
2022-10-22T12:30:02.821Z,65.00
2022-10-22T12:31:02.438Z,64.00
2022-10-22T12:32:03.061Z,65.00
2022-10-22T12:33:02.745Z,67.00
2022-10-22T12:34:02.800Z,67.00
2022-10-22T12:35:02.777Z,68.00
2022-10-22T12:36:02.738Z,67.00
2022-10-22T12:37:02.592Z,68.00
2022-10-22T12:38:03.040Z,68.00
2022-10-22T12:39:03.119Z,68.00
2022-10-22T12:40:03.144Z,67.00
2022-10-22T12:41:03.195Z,67.00
2022-10-22T12:42:03.070Z,68.00
2022-10-22T12:43:02.794Z,65.00
2022-10-22T12:44:02.494Z,64.00
2022-10-22T12:45:02.977Z,64.00
2022-10-22T12:46:03.011Z,64.00
2022-10-22T12:47:02.761Z,65.00
2022-10-22T12:48:03.515Z,63.00
2022-10-22T12:49:03.144Z,64.00
2022-10-22T12:50:03.572Z,64.00
2022-10-22T12:51:03.593Z,63.00
2022-10-22T12:52:03.251Z,64.00
2022-10-22T12:53:02.918Z,64.00
2022-10-22T12:54:02.872Z,64.00
2022-10-22T12:55:02.829Z,63.00
2022-10-22T12:56:02.729Z,62.00